aviador You're here:

PASM Decoded Metar

SAINT MARYS in AK, USA
Report Time2017-11-25 06:56:00
UTC Time2017-11-25 07:42:56
Flight Rules vfr VFR
Wind060° at 03 kt
W.Decomp.*RWY 06: 2.9 kt HW 0.6 kt LCW
RWY 35: 1.6 kt HW 2.5 kt RCW
W.Rank060° ranks 12
Current wind is below 060° avg. (6.9)
Visibility9999 m
Phenomena:N/A
Clouds:N/A
Expected CloudBase > 800 ft AGL from Temp-Dew spread
CeilingNone
Temp-13°C (ISA -27)
Dew Point-15°C (85% RH)
AAT-17.4°C
QNH1022 hPa
Density Alt-3,428 ft
Elevation302 ft
Report Wrong Elevation
Raw Report
PASM 250656Z AUTO 06003KT 10SM CLR M13/M15 A3019 RMK AO2 SLP241
T11331150 FZRANO=

Extra information for PASM:More info

Metar Taf Metar & Taf Last 4 Metars F.Rules Stats Wind Profile Meteogram Temp Stats Airport Information Weather charts Add Link Nearby VenuesMetar ALERT Operation Metar Decoded Social comments

AIRNAV info for PASM